Time;durP1;ratioP1;P1;durP2;ratioP2;P2;SDS_P1;SDS_P2;PMS_P1;PMS_P2;Temp;Humidity;BMP_temperature;BMP_pressure;BME280_temperature;BME280_humidity;BME280_pressure;Samples;Min_cycle;Max_cycle;Signal;HPM_P1;HPM_P2
2023/01/03 00:01:57;;;;;;;13.38;8.93;;;;;;;;;;5109496;27;20048;-69
2023/01/03 00:04:24;;;;;;;14.35;8.90;;;;;;;;;;5114660;27;20044;-69
2023/01/03 00:06:51;;;;;;;12.57;8.15;;;;;;;;;;5104106;28;20056;-69
2023/01/03 00:09:19;;;;;;;14.00;8.38;;;;;;;;;;5118138;27;20052;-69
2023/01/03 00:14:34;;;;;;;17.48;9.18;;;;;;;;;;5116335;27;20101;-70
2023/01/03 00:17:01;;;;;;;12.90;7.75;;;;;;;;;;5104222;28;20125;-69
2023/01/03 00:19:29;;;;;;;15.68;8.20;;;;;;;;;;5108434;27;20048;-69
2023/01/03 00:21:55;;;;;;;13.32;8.00;;;;;;;;;;5119356;27;20047;-69
2023/01/03 00:24:21;;;;;;;11.73;7.65;;;;;;;;;;5113162;27;20052;-69
2023/01/03 00:26:48;;;;;;;13.07;8.38;;;;;;;;;;5120903;27;20648;-70
2023/01/03 00:29:15;;;;;;;11.40;7.80;;;;;;;;;;5119938;27;20498;-69
2023/01/03 00:31:41;;;;;;;12.25;8.40;;;;;;;;;;5121232;27;20589;-70
2023/01/03 00:34:08;;;;;;;10.90;7.60;;;;;;;;;;5109525;27;20125;-69
2023/01/03 00:36:35;;;;;;;13.32;7.65;;;;;;;;;;5120733;27;20055;-69
2023/01/03 00:39:02;;;;;;;17.70;7.70;;;;;;;;;;5103274;27;20101;-69
2023/01/03 00:41:29;;;;;;;17.40;8.25;;;;;;;;;;5104921;27;20091;-69
2023/01/03 00:43:55;;;;;;;10.77;7.55;;;;;;;;;;5115348;27;20044;-69
2023/01/03 00:46:22;;;;;;;12.70;7.25;;;;;;;;;;5120448;27;20043;-69
2023/01/03 00:48:49;;;;;;;14.40;7.47;;;;;;;;;;5115068;27;20047;-69
2023/01/03 00:51:17;;;;;;;14.18;7.00;;;;;;;;;;5120333;27;20504;-69
2023/01/03 00:53:45;;;;;;;14.68;6.22;;;;;;;;;;5116486;27;20056;-69
2023/01/03 00:56:12;;;;;;;10.32;6.72;;;;;;;;;;5118081;27;20052;-69
2023/01/03 00:58:39;;;;;;;14.02;7.07;;;;;;;;;;5109729;27;20047;-69
2023/01/03 01:01:10;;;;;;;12.07;7.45;;;;;;;;;;5122574;27;20087;-69
2023/01/03 01:03:38;;;;;;;9.93;6.30;;;;;;;;;;5110226;27;20056;-69
2023/01/03 01:06:12;;;;;;;8.73;6.18;;;;;;;;;;5125810;27;20055;-69
2023/01/03 01:08:38;;;;;;;14.05;6.70;;;;;;;;;;5128134;27;20043;-69
2023/01/03 01:11:05;;;;;;;10.98;6.35;;;;;;;;;;5122251;27;20043;-69
2023/01/03 01:13:32;;;;;;;9.38;6.72;;;;;;;;;;5105523;27;20428;-69
2023/01/03 01:16:06;;;;;;;13.02;6.63;;;;;;;;;;5121550;27;20630;-69
2023/01/03 01:18:33;;;;;;;13.27;7.03;;;;;;;;;;5121376;27;20421;-68
2023/01/03 01:21:02;;;;;;;8.98;6.43;;;;;;;;;;5105857;27;20078;-68
2023/01/03 01:23:28;;;;;;;13.35;6.85;;;;;;;;;;5110029;27;20059;-69
2023/01/03 01:25:58;;;;;;;9.77;6.50;;;;;;;;;;5107640;27;20044;-68
2023/01/03 01:28:24;;;;;;;10.23;6.93;;;;;;;;;;5113677;27;20043;-68
2023/01/03 01:30:51;;;;;;;12.65;7.63;;;;;;;;;;5120535;27;20626;-68
2023/01/03 01:33:17;;;;;;;10.68;6.93;;;;;;;;;;5107098;27;20052;-68
2023/01/03 01:35:43;;;;;;;8.27;6.63;;;;;;;;;;5121116;27;20671;-68
2023/01/03 01:38:10;;;;;;;9.65;7.22;;;;;;;;;;5116032;27;20096;-68
2023/01/03 01:40:36;;;;;;;11.57;6.60;;;;;;;;;;5120672;27;20545;-68
2023/01/03 01:46:08;;;;;;;14.55;8.27;;;;;;;;;;5105454;27;20052;-69
2023/01/03 01:48:35;;;;;;;12.50;7.28;;;;;;;;;;5107992;27;20075;-68
2023/01/03 01:51:02;;;;;;;14.27;7.45;;;;;;;;;;5123068;27;20074;-68
2023/01/03 01:53:30;;;;;;;13.60;7.60;;;;;;;;;;5121629;27;20048;-68
2023/01/03 01:55:57;;;;;;;11.43;6.90;;;;;;;;;;5117888;27;20055;-68
2023/01/03 01:58:26;;;;;;;9.70;7.03;;;;;;;;;;5119839;27;20048;-69
2023/01/03 02:00:52;;;;;;;9.77;6.47;;;;;;;;;;5117285;27;21005;-69
2023/01/03 02:03:19;;;;;;;11.10;6.72;;;;;;;;;;5120734;27;20079;-68
2023/01/03 02:05:47;;;;;;;14.80;7.57;;;;;;;;;;5121664;27;20067;-69
2023/01/03 02:08:14;;;;;;;10.27;7.82;;;;;;;;;;5115197;27;20430;-68
2023/01/03 02:10:54;;;;;;;15.88;8.63;;;;;;;;;;5095099;27;20067;-68
2023/01/03 02:13:45;;;;;;;18.15;8.80;;;;;;;;;;5126311;27;20055;-68
2023/01/03 02:16:19;;;;;;;13.63;8.63;;;;;;;;;;5093948;28;20048;-68
2023/01/03 02:19:09;;;;;;;17.40;8.25;;;;;;;;;;5109087;27;20556;-69
2023/01/03 02:21:48;;;;;;;14.93;8.52;;;;;;;;;;5108770;27;20043;-68
2023/01/03 02:24:33;;;;;;;12.52;8.98;;;;;;;;;;5114117;27;20501;-69
2023/01/03 02:27:02;;;;;;;15.80;8.93;;;;;;;;;;5121406;27;20048;-68
2023/01/03 02:29:38;;;;;;;14.57;8.90;;;;;;;;;;5120413;27;20044;-68
2023/01/03 02:32:11;;;;;;;13.75;9.10;;;;;;;;;;5113695;27;20052;-68
2023/01/03 02:34:44;;;;;;;11.60;8.80;;;;;;;;;;5109656;27;20040;-68
2023/01/03 02:37:10;;;;;;;12.70;9.50;;;;;;;;;;5107301;27;20378;-68
2023/01/03 02:39:43;;;;;;;15.30;9.43;;;;;;;;;;5106615;27;20606;-68
2023/01/03 02:45:05;;;;;;;14.52;9.52;;;;;;;;;;5114194;27;20534;-68
2023/01/03 02:47:36;;;;;;;16.67;10.23;;;;;;;;;;5094653;27;20048;-69
2023/01/03 02:50:05;;;;;;;20.55;11.80;;;;;;;;;;5107284;27;20071;-68
2023/01/03 02:52:31;;;;;;;14.73;9.52;;;;;;;;;;5118782;27;20056;-68
2023/01/03 02:55:13;;;;;;;13.98;10.45;;;;;;;;;;5115160;27;20175;-68
2023/01/03 02:57:44;;;;;;;17.10;10.48;;;;;;;;;;5122254;27;20051;-68
2023/01/03 03:00:12;;;;;;;17.92;10.02;;;;;;;;;;5117470;27;20097;-68
2023/01/03 03:02:43;;;;;;;19.35;11.68;;;;;;;;;;5125185;27;20138;-68
2023/01/03 03:05:11;;;;;;;18.42;11.65;;;;;;;;;;5117418;27;21008;-68
2023/01/03 03:07:38;;;;;;;19.15;12.07;;;;;;;;;;5126612;27;20143;-68
2023/01/03 03:15:39;;;;;;;25.90;14.00;;;;;;;;;;5118766;27;20159;-68
2023/01/03 03:18:08;;;;;;;25.10;12.73;;;;;;;;;;5091850;27;20056;-68
2023/01/03 03:26:09;;;;;;;61.05;16.33;;;;;;;;;;5111443;27;20040;-70
2023/01/03 03:28:37;;;;;;;78.93;16.60;;;;;;;;;;5121648;27;20147;-69
2023/01/03 03:31:07;;;;;;;74.03;18.27;;;;;;;;;;5124156;27;20054;-69
2023/01/03 03:33:35;;;;;;;92.93;16.40;;;;;;;;;;5119754;27;20052;-68
2023/01/03 03:36:09;;;;;;;58.95;14.65;;;;;;;;;;5118447;27;20051;-68
2023/01/03 03:38:37;;;;;;;62.45;15.93;;;;;;;;;;5119172;27;20044;-68
2023/01/03 03:46:57;;;;;;;63.50;17.13;;;;;;;;;;5113644;27;20059;-68
2023/01/03 03:49:37;;;;;;;105.60;21.40;;;;;;;;;;5123615;27;20493;-68
2023/01/03 03:52:06;;;;;;;206.95;27.65;;;;;;;;;;5124088;27;20035;-68
2023/01/03 03:54:35;;;;;;;122.43;22.10;;;;;;;;;;5115573;27;20525;-68
2023/01/03 03:57:19;;;;;;;130.75;25.13;;;;;;;;;;5117959;27;20494;-68
2023/01/03 03:59:47;;;;;;;129.02;24.25;;;;;;;;;;5110390;27;20087;-68
2023/01/03 04:02:14;;;;;;;142.93;25.38;;;;;;;;;;5111148;27;20058;-68
2023/01/03 04:04:43;;;;;;;156.10;23.92;;;;;;;;;;5126411;27;20483;-68
2023/01/03 04:07:10;;;;;;;161.20;28.13;;;;;;;;;;5126084;27;20055;-68
2023/01/03 04:09:36;;;;;;;244.25;32.20;;;;;;;;;;5109715;27;20044;-69
2023/01/03 04:12:02;;;;;;;126.22;24.00;;;;;;;;;;5122936;27;20066;-68
2023/01/03 04:14:29;;;;;;;69.03;21.60;;;;;;;;;;5116943;27;20135;-68
2023/01/03 04:16:55;;;;;;;131.13;26.80;;;;;;;;;;5108648;27;20063;-68
2023/01/03 04:19:21;;;;;;;127.50;24.85;;;;;;;;;;5110390;27;20051;-68
2023/01/03 04:21:48;;;;;;;52.42;22.00;;;;;;;;;;5118602;27;20059;-68
2023/01/03 04:24:14;;;;;;;145.13;27.30;;;;;;;;;;5109778;27;20051;-68
2023/01/03 04:26:40;;;;;;;109.35;24.77;;;;;;;;;;5117910;27;20567;-68
2023/01/03 04:29:07;;;;;;;91.10;26.80;;;;;;;;;;5118123;27;20044;-68
2023/01/03 04:31:33;;;;;;;71.53;23.98;;;;;;;;;;5105903;27;20287;-68
2023/01/03 04:34:00;;;;;;;156.27;26.42;;;;;;;;;;5111691;27;20187;-69
2023/01/03 04:36:26;;;;;;;70.15;22.00;;;;;;;;;;5114700;27;20139;-68
2023/01/03 04:38:53;;;;;;;103.13;26.00;;;;;;;;;;5119846;27;20052;-69
2023/01/03 04:41:19;;;;;;;61.63;22.42;;;;;;;;;;5125790;27;20048;-69
2023/01/03 04:44:00;;;;;;;97.30;24.02;;;;;;;;;;5106227;27;20113;-69
2023/01/03 04:46:28;;;;;;;87.95;24.05;;;;;;;;;;5104986;27;20150;-69
2023/01/03 04:48:54;;;;;;;94.20;23.70;;;;;;;;;;5105375;27;20052;-68
2023/01/03 04:51:21;;;;;;;42.05;21.63;;;;;;;;;;5118406;27;20128;-69
2023/01/03 04:53:47;;;;;;;62.85;23.60;;;;;;;;;;5117008;27;20334;-68
2023/01/03 04:56:13;;;;;;;56.47;24.63;;;;;;;;;;5121821;27;20048;-69
2023/01/03 04:58:40;;;;;;;40.88;22.50;;;;;;;;;;5127165;27;20047;-71
2023/01/03 05:01:07;;;;;;;39.20;22.48;;;;;;;;;;5130655;27;20054;-69
2023/01/03 05:03:33;;;;;;;37.35;22.52;;;;;;;;;;5118132;27;20040;-69
2023/01/03 05:06:07;;;;;;;49.67;24.23;;;;;;;;;;5103746;27;20534;-69
2023/01/03 05:08:34;;;;;;;36.85;22.70;;;;;;;;;;5120688;27;20347;-68
2023/01/03 05:11:01;;;;;;;46.78;24.27;;;;;;;;;;5112796;27;20040;-69
2023/01/03 05:13:27;;;;;;;43.20;24.55;;;;;;;;;;5110787;27;20150;-68
2023/01/03 05:15:54;;;;;;;47.08;25.23;;;;;;;;;;5103331;27;20566;-69
2023/01/03 05:18:20;;;;;;;43.08;26.55;;;;;;;;;;5123110;27;20062;-69
2023/01/03 05:26:18;;;;;;;45.15;27.42;;;;;;;;;;5116749;27;20501;-68
2023/01/03 05:28:46;;;;;;;52.35;28.80;;;;;;;;;;5131968;27;20142;-68
2023/01/03 05:31:12;;;;;;;42.38;27.05;;;;;;;;;;5107879;27;20055;-68
2023/01/03 05:33:39;;;;;;;46.45;29.15;;;;;;;;;;5112960;27;20055;-68
2023/01/03 05:36:06;;;;;;;40.92;27.02;;;;;;;;;;5110089;27;20105;-69
2023/01/03 05:38:33;;;;;;;44.50;25.58;;;;;;;;;;5101128;27;20234;-69
2023/01/03 05:41:00;;;;;;;44.30;25.45;;;;;;;;;;5117109;27;20471;-69
2023/01/03 05:43:26;;;;;;;42.35;27.70;;;;;;;;;;5119390;27;20075;-69
2023/01/03 05:45:53;;;;;;;44.33;27.00;;;;;;;;;;5120305;27;20051;-69
2023/01/03 05:48:20;;;;;;;43.60;26.10;;;;;;;;;;5121845;27;20058;-68
2023/01/03 05:50:46;;;;;;;44.22;25.02;;;;;;;;;;5122469;27;20048;-68
2023/01/03 05:53:13;;;;;;;43.45;25.60;;;;;;;;;;5122695;27;20056;-68
2023/01/03 05:55:40;;;;;;;40.92;24.70;;;;;;;;;;5116494;27;20113;-68
2023/01/03 05:58:07;;;;;;;42.22;24.95;;;;;;;;;;5119420;27;20059;-68
2023/01/03 06:00:33;;;;;;;39.03;26.98;;;;;;;;;;5117432;27;20502;-68
2023/01/03 06:03:00;;;;;;;42.65;25.20;;;;;;;;;;5121008;27;20519;-69
2023/01/03 06:05:26;;;;;;;41.15;25.52;;;;;;;;;;5117820;27;20494;-68
2023/01/03 06:07:52;;;;;;;44.13;24.85;;;;;;;;;;5114445;27;20552;-69
2023/01/03 06:10:19;;;;;;;47.17;25.15;;;;;;;;;;5110631;27;20044;-68
2023/01/03 06:12:45;;;;;;;41.70;25.20;;;;;;;;;;5122221;27;20505;-68
2023/01/03 06:15:11;;;;;;;46.97;27.38;;;;;;;;;;5116270;27;20532;-69
2023/01/03 06:20:24;;;;;;;44.72;24.92;;;;;;;;;;5115200;27;20055;-68
2023/01/03 06:22:51;;;;;;;44.17;24.45;;;;;;;;;;5102780;27;20055;-68
2023/01/03 06:25:17;;;;;;;37.80;23.85;;;;;;;;;;5116664;27;20590;-68
2023/01/03 06:27:43;;;;;;;42.63;22.10;;;;;;;;;;5114120;27;20521;-70
2023/01/03 06:30:10;;;;;;;39.25;22.42;;;;;;;;;;5106877;27;20082;-68
2023/01/03 06:32:37;;;;;;;37.28;22.48;;;;;;;;;;5125315;27;20048;-68
2023/01/03 06:35:03;;;;;;;32.58;20.67;;;;;;;;;;5106882;27;20048;-68
2023/01/03 06:37:30;;;;;;;33.38;20.63;;;;;;;;;;5119538;27;20040;-68
2023/01/03 06:39:56;;;;;;;37.97;21.55;;;;;;;;;;5119448;27;20105;-69
2023/01/03 06:53:25;;;;;;;38.25;22.17;;;;;;;;;;5128731;27;20055;-68
2023/01/03 06:55:51;;;;;;;30.98;21.52;;;;;;;;;;5120238;27;20051;-69
2023/01/03 06:58:22;;;;;;;34.53;21.05;;;;;;;;;;5117406;27;20058;-69
2023/01/03 07:00:49;;;;;;;35.58;21.88;;;;;;;;;;5116262;27;20048;-69
2023/01/03 07:03:15;;;;;;;33.17;19.75;;;;;;;;;;5115506;27;20135;-68
2023/01/03 07:05:41;;;;;;;31.85;19.77;;;;;;;;;;5119365;27;20054;-69
2023/01/03 07:08:08;;;;;;;36.30;19.55;;;;;;;;;;5115902;27;20122;-70
2023/01/03 07:10:34;;;;;;;28.58;18.70;;;;;;;;;;5109040;27;20083;-70
2023/01/03 07:15:49;;;;;;;27.00;17.25;;;;;;;;;;5107337;27;20085;-69
2023/01/03 07:18:15;;;;;;;28.48;17.58;;;;;;;;;;5105369;27;20438;-69
2023/01/03 07:20:42;;;;;;;28.58;17.95;;;;;;;;;;5114072;27;20591;-71
2023/01/03 07:23:09;;;;;;;25.73;18.17;;;;;;;;;;5110210;27;20054;-71
2023/01/03 07:25:40;;;;;;;29.05;16.38;;;;;;;;;;5124534;27;20486;-70
2023/01/03 07:28:07;;;;;;;27.95;17.50;;;;;;;;;;5111857;27;20056;-70
2023/01/03 07:30:40;;;;;;;26.85;17.05;;;;;;;;;;5106696;27;20053;-71
2023/01/03 07:33:08;;;;;;;25.67;17.33;;;;;;;;;;5111100;27;20572;-71
2023/01/03 07:35:35;;;;;;;27.33;17.52;;;;;;;;;;5113130;27;20052;-71
2023/01/03 07:38:02;;;;;;;25.77;16.63;;;;;;;;;;5118011;27;20083;-71
2023/01/03 07:40:28;;;;;;;29.27;17.02;;;;;;;;;;5121635;27;20063;-72
2023/01/03 07:45:41;;;;;;;27.00;17.08;;;;;;;;;;5115722;27;20051;-69
2023/01/03 07:48:07;;;;;;;29.13;16.77;;;;;;;;;;5111833;27;20144;-68
2023/01/03 07:50:35;;;;;;;22.88;15.57;;;;;;;;;;5142293;27;20506;-68
2023/01/03 07:53:01;;;;;;;25.42;15.50;;;;;;;;;;5111385;27;20063;-68
2023/01/03 07:55:28;;;;;;;28.10;16.15;;;;;;;;;;5107779;27;20056;-71
2023/01/03 07:57:54;;;;;;;21.70;15.57;;;;;;;;;;5114220;27;20049;-71
2023/01/03 08:00:21;;;;;;;25.08;15.93;;;;;;;;;;5121953;27;20055;-70
2023/01/03 08:02:47;;;;;;;27.95;16.27;;;;;;;;;;5123063;27;20059;-70
2023/01/03 08:05:14;;;;;;;23.42;15.40;;;;;;;;;;5120590;27;20505;-70
2023/01/03 08:07:40;;;;;;;33.75;15.40;;;;;;;;;;5115619;27;20083;-70
2023/01/03 08:15:38;;;;;;;26.27;15.77;;;;;;;;;;5108928;27;20067;-69
2023/01/03 08:18:04;;;;;;;22.00;15.40;;;;;;;;;;5112052;27;20152;-70
2023/01/03 08:20:31;;;;;;;19.60;14.20;;;;;;;;;;5123493;27;20165;-69
2023/01/03 08:22:58;;;;;;;23.33;14.27;;;;;;;;;;5118253;27;20380;-69
2023/01/03 08:25:24;;;;;;;25.08;16.10;;;;;;;;;;5115948;27;20056;-70
2023/01/03 08:27:51;;;;;;;22.27;14.85;;;;;;;;;;5115030;27;20097;-69
2023/01/03 08:30:17;;;;;;;25.15;14.05;;;;;;;;;;5110532;27;20063;-69
2023/01/03 08:32:43;;;;;;;21.25;13.90;;;;;;;;;;5114917;27;20063;-69
2023/01/03 08:35:10;;;;;;;23.30;14.15;;;;;;;;;;5111146;27;20043;-69
2023/01/03 08:37:37;;;;;;;30.27;13.88;;;;;;;;;;5121438;27;20524;-69
2023/01/03 08:40:03;;;;;;;22.25;12.85;;;;;;;;;;5115203;27;20490;-70
2023/01/03 08:42:31;;;;;;;20.92;13.02;;;;;;;;;;5114622;27;20055;-70
2023/01/03 08:45:00;;;;;;;24.75;14.10;;;;;;;;;;5123495;27;20083;-70
2023/01/03 08:47:27;;;;;;;22.17;13.65;;;;;;;;;;5122351;27;20082;-70
2023/01/03 08:49:54;;;;;;;24.23;13.05;;;;;;;;;;5118283;27;20056;-69
2023/01/03 08:52:20;;;;;;;23.27;13.48;;;;;;;;;;5129810;27;20043;-68
2023/01/03 08:54:46;;;;;;;21.15;13.70;;;;;;;;;;5122157;27;20055;-69
2023/01/03 08:57:13;;;;;;;22.55;14.05;;;;;;;;;;5116781;27;20516;-68
2023/01/03 08:59:40;;;;;;;22.98;13.18;;;;;;;;;;5121966;27;20592;-69
2023/01/03 09:02:06;;;;;;;20.85;12.63;;;;;;;;;;5117387;27;20055;-69
2023/01/03 09:04:33;;;;;;;23.08;13.05;;;;;;;;;;5116875;27;20559;-69
2023/01/03 09:06:59;;;;;;;21.70;12.73;;;;;;;;;;5123334;27;20509;-69
2023/01/03 09:09:25;;;;;;;21.10;13.82;;;;;;;;;;5102060;27;20047;-70
2023/01/03 09:11:52;;;;;;;19.63;13.38;;;;;;;;;;5117671;27;20083;-69
2023/01/03 09:14:18;;;;;;;20.60;14.02;;;;;;;;;;5113930;27;20402;-70
2023/01/03 09:16:45;;;;;;;29.50;14.82;;;;;;;;;;5121911;27;20489;-69
2023/01/03 09:19:14;;;;;;;27.40;15.02;;;;;;;;;;5119537;27;20055;-69
2023/01/03 09:21:41;;;;;;;22.50;13.25;;;;;;;;;;5118206;27;20146;-69
2023/01/03 09:24:08;;;;;;;27.67;14.23;;;;;;;;;;5114183;27;20537;-69
2023/01/03 09:26:34;;;;;;;26.20;16.60;;;;;;;;;;5110655;27;20670;-69
2023/01/03 09:29:01;;;;;;;21.58;13.23;;;;;;;;;;5122588;27;20043;-69
2023/01/03 09:31:31;;;;;;;29.02;15.32;;;;;;;;;;5122214;27;20052;-69
2023/01/03 09:33:58;;;;;;;30.27;15.15;;;;;;;;;;5122832;27;20139;-69
2023/01/03 09:36:24;;;;;;;29.10;14.48;;;;;;;;;;5119442;27;20113;-69
2023/01/03 09:38:50;;;;;;;27.35;15.10;;;;;;;;;;5122377;27;20056;-69
2023/01/03 09:41:20;;;;;;;35.67;17.33;;;;;;;;;;5114840;27;20591;-69
2023/01/03 09:43:48;;;;;;;34.20;15.50;;;;;;;;;;5113443;27;20142;-69
2023/01/03 09:46:16;;;;;;;35.20;16.02;;;;;;;;;;5112442;27;20498;-69
2023/01/03 09:48:43;;;;;;;26.85;16.40;;;;;;;;;;5120022;27;20570;-69
2023/01/03 10:06:04;;;;;;;33.33;16.90;;;;;;;;;;5110325;27;20157;-69
2023/01/03 10:08:35;;;;;;;38.80;17.55;;;;;;;;;;5118739;27;20059;-69
2023/01/03 10:11:04;;;;;;;38.80;17.45;;;;;;;;;;5106358;27;20052;-68
2023/01/03 10:14:04;;;;;;;32.88;18.38;;;;;;;;;;5121095;27;20079;-68
2023/01/03 10:16:48;;;;;;;38.75;18.13;;;;;;;;;;5036728;28;20050;-69
2023/01/03 10:19:27;;;;;;;39.15;17.98;;;;;;;;;;5036827;28;20061;-69
2023/01/03 10:22:02;;;;;;;38.08;17.10;;;;;;;;;;5037656;28;20663;-69
2023/01/03 10:24:37;;;;;;;42.80;17.90;;;;;;;;;;5037257;28;20057;-68
2023/01/03 10:27:12;;;;;;;46.45;20.10;;;;;;;;;;5041057;28;20057;-68
2023/01/03 10:29:39;;;;;;;39.70;18.95;;;;;;;;;;5038598;28;20668;-69
2023/01/03 10:32:08;;;;;;;38.60;18.55;;;;;;;;;;5036118;28;20560;-68
2023/01/03 10:34:36;;;;;;;43.42;18.45;;;;;;;;;;5037902;28;20057;-69
2023/01/03 10:37:08;;;;;;;42.00;19.45;;;;;;;;;;5036973;28;20185;-70
2023/01/03 10:39:34;;;;;;;42.45;18.92;;;;;;;;;;5038227;28;20054;-69
2023/01/03 10:42:03;;;;;;;42.08;18.67;;;;;;;;;;5038244;28;20049;-69
2023/01/03 10:44:31;;;;;;;36.38;18.92;;;;;;;;;;5035210;28;20064;-69
2023/01/03 10:46:59;;;;;;;37.47;19.13;;;;;;;;;;5037371;28;20046;-69
2023/01/03 10:49:28;;;;;;;42.40;19.58;;;;;;;;;;5032671;28;20057;-69
2023/01/03 10:51:56;;;;;;;37.60;19.05;;;;;;;;;;5066635;27;20079;-69
2023/01/03 10:54:25;;;;;;;43.40;19.35;;;;;;;;;;5116562;27;20059;-69
2023/01/03 10:56:52;;;;;;;36.15;19.20;;;;;;;;;;5110851;27;20052;-69
2023/01/03 10:59:25;;;;;;;40.38;18.08;;;;;;;;;;5124882;27;20078;-70
2023/01/03 11:01:54;;;;;;;40.17;17.40;;;;;;;;;;5109204;27;20131;-69
2023/01/03 11:04:22;;;;;;;40.83;18.50;;;;;;;;;;5118160;27;20101;-70
2023/01/03 11:07:11;;;;;;;38.55;18.05;;;;;;;;;;5111511;27;20051;-69
2023/01/03 11:09:48;;;;;;;36.55;17.75;;;;;;;;;;5122320;27;20052;-69
2023/01/03 11:12:53;;;;;;;40.10;18.85;;;;;;;;;;5120672;27;20048;-69
2023/01/03 11:15:20;;;;;;;41.10;16.83;;;;;;;;;;5065496;28;20427;-69
2023/01/03 11:17:56;;;;;;;41.20;18.38;;;;;;;;;;5081806;28;20573;-69
2023/01/03 11:20:38;;;;;;;42.50;17.95;;;;;;;;;;5061854;28;20499;-69
2023/01/03 11:23:13;;;;;;;41.60;18.27;;;;;;;;;;5076966;28;20277;-70
2023/01/03 11:26:00;;;;;;;32.92;17.00;;;;;;;;;;5081954;28;20082;-69
2023/01/03 11:28:26;;;;;;;36.10;17.73;;;;;;;;;;5071602;28;20074;-69
2023/01/03 11:30:58;;;;;;;28.60;17.15;;;;;;;;;;5062469;28;20535;-69
2023/01/03 11:33:34;;;;;;;30.38;14.65;;;;;;;;;;5081171;28;20052;-69
2023/01/03 11:36:21;;;;;;;28.25;14.10;;;;;;;;;;5080552;28;20235;-68
2023/01/03 11:38:47;;;;;;;33.25;16.42;;;;;;;;;;5079791;28;20576;-68
2023/01/03 11:41:32;;;;;;;30.63;15.90;;;;;;;;;;5064071;28;20569;-68
2023/01/03 11:44:22;;;;;;;32.55;14.75;;;;;;;;;;5063346;28;20041;-69
2023/01/03 11:46:57;;;;;;;22.70;12.68;;;;;;;;;;5066471;28;20072;-68
2023/01/03 11:49:42;;;;;;;28.50;14.05;;;;;;;;;;5102379;27;20056;-68
2023/01/03 11:52:08;;;;;;;27.02;14.95;;;;;;;;;;5122820;27;20646;-68
2023/01/03 11:54:41;;;;;;;30.95;15.90;;;;;;;;;;5123623;27;20047;-69
2023/01/03 11:57:36;;;;;;;24.80;14.60;;;;;;;;;;5123318;27;20048;-70
2023/01/03 12:00:16;;;;;;;23.35;13.27;;;;;;;;;;5123026;27;20520;-69
2023/01/03 12:02:53;;;;;;;30.85;15.32;;;;;;;;;;5124561;27;20051;-70
2023/01/03 12:05:38;;;;;;;27.33;15.77;;;;;;;;;;5123733;27;20048;-69
2023/01/03 12:08:12;;;;;;;27.95;15.30;;;;;;;;;;5113483;27;20044;-69
2023/01/03 12:10:50;;;;;;;27.08;15.80;;;;;;;;;;5119706;27;20105;-69
2023/01/03 12:13:19;;;;;;;28.40;14.63;;;;;;;;;;5121774;27;20127;-69
2023/01/03 12:16:02;;;;;;;29.60;16.73;;;;;;;;;;5110415;27;20586;-69
2023/01/03 12:18:32;;;;;;;30.00;15.30;;;;;;;;;;5123343;27;20055;-69
2023/01/03 12:21:01;;;;;;;28.95;15.57;;;;;;;;;;5107359;27;20091;-69
2023/01/03 12:23:31;;;;;;;36.75;16.92;;;;;;;;;;5117109;27;20058;-70
2023/01/03 12:25:59;;;;;;;26.02;15.02;;;;;;;;;;5121613;27;20489;-70
2023/01/03 12:28:34;;;;;;;31.58;17.10;;;;;;;;;;5130962;27;20047;-69
2023/01/03 12:31:16;;;;;;;30.23;15.77;;;;;;;;;;5123654;27;20062;-68
2023/01/03 12:34:04;;;;;;;30.75;14.63;;;;;;;;;;5113767;27;20052;-70
2023/01/03 12:36:41;;;;;;;27.77;13.20;;;;;;;;;;5116707;27;20080;-70
2023/01/03 12:39:27;;;;;;;27.10;15.07;;;;;;;;;;5126800;27;20595;-69
2023/01/03 12:42:17;;;;;;;29.27;16.13;;;;;;;;;;5115334;27;20047;-69
2023/01/03 12:44:45;;;;;;;29.03;14.90;;;;;;;;;;5111602;27;20425;-68
2023/01/03 12:47:25;;;;;;;28.80;14.40;;;;;;;;;;5112644;27;21310;-69
2023/01/03 12:50:10;;;;;;;29.20;13.50;;;;;;;;;;5102472;27;20498;-69
2023/01/03 12:52:37;;;;;;;28.60;13.70;;;;;;;;;;5111166;27;20479;-69
2023/01/03 12:55:07;;;;;;;22.85;13.05;;;;;;;;;;5100144;27;20051;-70
2023/01/03 12:57:50;;;;;;;28.33;13.38;;;;;;;;;;5123536;27;20960;-70
2023/01/03 13:00:25;;;;;;;26.65;12.15;;;;;;;;;;5112752;27;20147;-69
2023/01/03 13:02:54;;;;;;;21.10;10.93;;;;;;;;;;5111433;27;20497;-70
2023/01/03 13:05:20;;;;;;;22.77;11.45;;;;;;;;;;5120916;27;20135;-70
2023/01/03 13:08:02;;;;;;;20.27;11.05;;;;;;;;;;5115932;27;20045;-70
2023/01/03 13:10:31;;;;;;;21.38;11.77;;;;;;;;;;5113978;27;20070;-70
2023/01/03 13:12:59;;;;;;;21.92;11.02;;;;;;;;;;5121495;27;20052;-73
2023/01/03 13:15:25;;;;;;;19.23;11.57;;;;;;;;;;5118374;27;20551;-71
2023/01/03 13:18:01;;;;;;;;;;;;;;;;;;5115052;27;20580;-68
2023/01/03 13:20:30;;;;;;;17.30;10.75;;;;;;;;;;5122062;27;45625;-67
2023/01/03 13:22:57;;;;;;;19.30;10.45;;;;;;;;;;5118388;27;20056;-68
2023/01/03 13:25:32;;;;;;;19.33;9.50;;;;;;;;;;5125840;27;20047;-68
2023/01/03 13:27:59;;;;;;;14.43;9.88;;;;;;;;;;5122848;27;20170;-68
2023/01/03 13:30:27;;;;;;;14.05;9.73;;;;;;;;;;5121963;27;20606;-68
2023/01/03 13:33:04;;;;;;;14.45;9.20;;;;;;;;;;5122764;27;20893;-68
2023/01/03 13:35:32;;;;;;;12.82;8.07;;;;;;;;;;5121235;27;20055;-68
2023/01/03 13:38:10;;;;;;;14.75;8.43;;;;;;;;;;5090312;27;20589;-68
2023/01/03 13:40:36;;;;;;;12.82;7.65;;;;;;;;;;5123300;27;20047;-68
2023/01/03 13:43:27;;;;;;;10.10;6.43;;;;;;;;;;5121862;27;20099;-68
2023/01/03 13:45:55;;;;;;;13.30;6.68;;;;;;;;;;5122192;27;20367;-68
2023/01/03 13:48:23;;;;;;;12.20;7.47;;;;;;;;;;5121794;27;20143;-68
2023/01/03 13:51:01;;;;;;;10.95;6.90;;;;;;;;;;5106301;27;20178;-68
2023/01/03 13:53:29;;;;;;;8.60;6.25;;;;;;;;;;5120512;27;20097;-68
2023/01/03 13:55:57;;;;;;;14.07;6.38;;;;;;;;;;5118566;27;20039;-67
2023/01/03 13:58:26;;;;;;;7.97;5.82;;;;;;;;;;5115204;27;20465;-68
2023/01/03 14:00:57;;;;;;;10.55;6.03;;;;;;;;;;5127470;27;20121;-69
2023/01/03 14:03:49;;;;;;;8.93;5.57;;;;;;;;;;5121069;27;20052;-68
2023/01/03 14:06:24;;;;;;;7.63;6.22;;;;;;;;;;5123555;27;20646;-69
2023/01/03 14:08:51;;;;;;;12.52;6.00;;;;;;;;;;5119652;27;20048;-68
2023/01/03 14:11:34;;;;;;;17.83;6.63;;;;;;;;;;5117950;27;20139;-68
2023/01/03 14:14:07;;;;;;;9.80;5.65;;;;;;;;;;5121986;27;20052;-68
2023/01/03 14:16:36;;;;;;;7.03;5.50;;;;;;;;;;5127619;27;20221;-68
2023/01/03 14:19:10;;;;;;;8.30;5.38;;;;;;;;;;5121139;27;20051;-67
2023/01/03 14:21:45;;;;;;;8.10;6.13;;;;;;;;;;5122385;27;20154;-68
2023/01/03 14:24:15;;;;;;;10.95;6.43;;;;;;;;;;5120758;27;20055;-68
2023/01/03 14:26:41;;;;;;;11.38;5.97;;;;;;;;;;5112273;27;20138;-67
2023/01/03 14:29:10;;;;;;;8.20;6.13;;;;;;;;;;5118357;27;20515;-68
2023/01/03 14:31:44;;;;;;;9.20;6.35;;;;;;;;;;5122472;27;20079;-67
2023/01/03 14:34:20;;;;;;;10.68;6.75;;;;;;;;;;5124187;27;20511;-68
2023/01/03 14:36:47;;;;;;;9.80;6.75;;;;;;;;;;5123510;27;20514;-68
2023/01/03 14:39:20;;;;;;;10.30;5.93;;;;;;;;;;5105532;27;20105;-67
2023/01/03 14:41:47;;;;;;;11.85;6.90;;;;;;;;;;5119702;27;20205;-68
2023/01/03 14:44:15;;;;;;;11.10;5.53;;;;;;;;;;5120069;27;20505;-69
2023/01/03 14:46:54;;;;;;;10.68;6.30;;;;;;;;;;5114110;27;20498;-68
2023/01/03 14:49:23;;;;;;;10.20;5.93;;;;;;;;;;5121102;27;20047;-68
2023/01/03 14:51:51;;;;;;;13.13;5.53;;;;;;;;;;5125192;27;20058;-68
2023/01/03 14:54:18;;;;;;;9.18;6.35;;;;;;;;;;5123390;27;20147;-68
2023/01/03 14:56:45;;;;;;;7.10;5.45;;;;;;;;;;5117699;27;20135;-68
2023/01/03 14:59:16;;;;;;;9.88;5.97;;;;;;;;;;5113918;27;20075;-68
2023/01/03 15:01:43;;;;;;;14.10;5.97;;;;;;;;;;5125847;27;20117;-68
2023/01/03 15:04:12;;;;;;;9.82;5.78;;;;;;;;;;5125277;27;20313;-68
2023/01/03 15:06:52;;;;;;;13.07;5.97;;;;;;;;;;5125275;27;20100;-68
2023/01/03 15:09:31;;;;;;;10.75;6.30;;;;;;;;;;5120993;27;20075;-68
2023/01/03 15:12:00;;;;;;;8.55;5.20;;;;;;;;;;5122187;27;20048;-68
2023/01/03 15:14:33;;;;;;;11.63;6.18;;;;;;;;;;5125484;27;20500;-68
2023/01/03 15:17:26;;;;;;;7.32;5.47;;;;;;;;;;5104075;27;20052;-68
2023/01/03 15:19:54;;;;;;;9.93;4.97;;;;;;;;;;5119298;27;20665;-68
2023/01/03 15:22:22;;;;;;;13.02;5.25;;;;;;;;;;5115894;27;20087;-68
2023/01/03 15:24:52;;;;;;;9.40;5.45;;;;;;;;;;5112288;27;20056;-68
2023/01/03 15:27:36;;;;;;;8.98;5.07;;;;;;;;;;5124315;27;20059;-68
2023/01/03 15:30:19;;;;;;;10.68;5.90;;;;;;;;;;5119643;27;20143;-68
2023/01/03 15:33:03;;;;;;;9.45;4.88;;;;;;;;;;5121271;27;20533;-69
2023/01/03 15:35:40;;;;;;;6.97;4.68;;;;;;;;;;5112709;27;20048;-68
2023/01/03 15:38:15;;;;;;;12.27;5.82;;;;;;;;;;5113861;27;20202;-68
2023/01/03 15:40:42;;;;;;;8.90;5.47;;;;;;;;;;5124099;27;20101;-68
2023/01/03 15:43:20;;;;;;;11.02;5.65;;;;;;;;;;5125063;27;20167;-67
2023/01/03 15:46:07;;;;;;;8.80;5.00;;;;;;;;;;5113497;27;20622;-67
2023/01/03 15:48:34;;;;;;;9.15;5.47;;;;;;;;;;5111063;27;20115;-68
2023/01/03 15:51:01;;;;;;;9.43;4.78;;;;;;;;;;5120516;27;20785;-68
2023/01/03 15:53:32;;;;;;;10.32;5.90;;;;;;;;;;5121079;27;20075;-68